Time;durP1;ratioP1;P1;durP2;ratioP2;P2;SDS_P1;SDS_P2;PMS_P1;PMS_P2;Temp;Humidity;BMP_temperature;BMP_pressure;BME280_temperature;BME280_humidity;BME280_pressure;Samples;Min_cycle;Max_cycle;Signal;HPM_P1;HPM_P2
2022/07/27 00:02:25;;;;;;;5.15;1.10;;;;;;;;;;6220399;23;20109;-62
2022/07/27 00:04:51;;;;;;;2.88;1.10;;;;;;;;;;6246864;23;20016;-62
2022/07/27 00:07:17;;;;;;;5.40;1.08;;;;;;;;;;6246331;23;20099;-62
2022/07/27 00:09:43;;;;;;;5.78;1.17;;;;;;;;;;6246226;23;20095;-63
2022/07/27 00:12:09;;;;;;;5.28;1.40;;;;;;;;;;6219339;23;20047;-62
2022/07/27 00:14:35;;;;;;;4.20;1.50;;;;;;;;;;6246880;23;20020;-62
2022/07/27 00:17:01;;;;;;;5.95;1.60;;;;;;;;;;6220282;23;20487;-64
2022/07/27 00:19:27;;;;;;;5.90;1.42;;;;;;;;;;6219990;23;20087;-62
2022/07/27 00:21:53;;;;;;;6.97;1.50;;;;;;;;;;6219602;23;20016;-61
2022/07/27 00:24:19;;;;;;;8.50;1.60;;;;;;;;;;6246166;23;20027;-62
2022/07/27 00:26:45;;;;;;;3.88;1.60;;;;;;;;;;6246573;23;20082;-62
2022/07/27 00:29:11;;;;;;;4.53;1.40;;;;;;;;;;6246878;23;20058;-62
2022/07/27 00:31:37;;;;;;;4.10;1.73;;;;;;;;;;6219991;23;20334;-62
2022/07/27 00:34:03;;;;;;;3.47;1.42;;;;;;;;;;6246740;23;20082;-62
2022/07/27 00:36:29;;;;;;;4.57;1.42;;;;;;;;;;6246335;23;20087;-61
2022/07/27 00:38:55;;;;;;;6.55;1.75;;;;;;;;;;6219641;23;20457;-61
2022/07/27 00:41:21;;;;;;;6.07;1.42;;;;;;;;;;6220118;23;20042;-62
2022/07/27 00:43:58;;;;;;;5.32;1.92;;;;;;;;;;6245774;23;20024;-61
2022/07/27 00:46:24;;;;;;;5.10;1.40;;;;;;;;;;6194585;23;20060;-61
2022/07/27 00:48:51;;;;;;;6.95;1.38;;;;;;;;;;6246317;23;20020;-62
2022/07/27 00:51:18;;;;;;;9.82;1.70;;;;;;;;;;6219189;23;20023;-63
2022/07/27 00:53:44;;;;;;;7.15;1.77;;;;;;;;;;6246642;23;20323;-62
2022/07/27 00:56:10;;;;;;;4.72;1.92;;;;;;;;;;6219758;23;20024;-63
2022/07/27 00:58:37;;;;;;;4.63;1.50;;;;;;;;;;6219381;23;20051;-62
2022/07/27 01:01:04;;;;;;;6.05;1.60;;;;;;;;;;6194021;23;20020;-63
2022/07/27 01:03:30;;;;;;;6.57;1.40;;;;;;;;;;6245897;23;20016;-62
2022/07/27 01:05:56;;;;;;;5.40;1.27;;;;;;;;;;6246425;23;20384;-62
2022/07/27 01:08:22;;;;;;;5.32;1.48;;;;;;;;;;6194624;23;20493;-62
2022/07/27 01:10:49;;;;;;;5.88;1.40;;;;;;;;;;6246155;23;20016;-63
2022/07/27 01:13:15;;;;;;;8.57;1.73;;;;;;;;;;6218471;23;20027;-63
2022/07/27 01:15:42;;;;;;;4.75;1.38;;;;;;;;;;6219196;23;20023;-62
2022/07/27 01:18:12;;;;;;;3.90;1.38;;;;;;;;;;6246442;23;20016;-63
2022/07/27 01:20:42;;;;;;;3.33;1.30;;;;;;;;;;6246327;23;20012;-62
2022/07/27 01:23:09;;;;;;;5.53;1.90;;;;;;;;;;6219107;23;20460;-62
2022/07/27 01:25:35;;;;;;;5.63;1.60;;;;;;;;;;6219595;23;20016;-63
2022/07/27 01:28:01;;;;;;;4.00;1.85;;;;;;;;;;6219308;23;20065;-62
2022/07/27 01:30:29;;;;;;;5.93;2.85;;;;;;;;;;6218812;23;20387;-62
2022/07/27 01:33:06;;;;;;;5.07;2.42;;;;;;;;;;6218917;23;20020;-62
2022/07/27 01:35:32;;;;;;;10.57;4.53;;;;;;;;;;6194274;23;20056;-62
2022/07/27 01:37:59;;;;;;;12.13;6.05;;;;;;;;;;6218853;23;20441;-62
2022/07/27 01:40:26;;;;;;;12.57;5.00;;;;;;;;;;6219216;23;20116;-62
2022/07/27 01:42:52;;;;;;;13.32;5.45;;;;;;;;;;6193493;23;20020;-62
2022/07/27 01:45:18;;;;;;;11.93;6.63;;;;;;;;;;6245689;23;20099;-62
2022/07/27 01:47:44;;;;;;;18.13;9.20;;;;;;;;;;6245378;23;20027;-62
2022/07/27 01:50:10;;;;;;;17.92;8.77;;;;;;;;;;6245439;23;20012;-62
2022/07/27 01:52:38;;;;;;;14.60;7.57;;;;;;;;;;6193930;23;20108;-62
2022/07/27 01:55:05;;;;;;;17.23;7.00;;;;;;;;;;6218894;23;20059;-62
2022/07/27 01:57:31;;;;;;;15.25;8.20;;;;;;;;;;6245776;23;20020;-62
2022/07/27 01:59:57;;;;;;;17.70;9.23;;;;;;;;;;6245310;23;20329;-62
2022/07/27 02:02:23;;;;;;;15.68;8.52;;;;;;;;;;6218691;23;20024;-62
2022/07/27 02:04:49;;;;;;;16.25;7.82;;;;;;;;;;6245726;23;20023;-62
2022/07/27 02:07:15;;;;;;;14.77;6.88;;;;;;;;;;6245504;23;20333;-62
2022/07/27 02:09:41;;;;;;;13.85;4.03;;;;;;;;;;6245194;23;20455;-62
2022/07/27 02:14:52;;;;;;;5.22;2.13;;;;;;;;;;6245318;23;20024;-62
2022/07/27 02:17:18;;;;;;;7.15;2.65;;;;;;;;;;6245444;23;20072;-62
2022/07/27 02:19:44;;;;;;;6.68;2.38;;;;;;;;;;6245288;23;20024;-62
2022/07/27 02:22:10;;;;;;;6.82;2.25;;;;;;;;;;6245391;23;20024;-62
2022/07/27 02:24:36;;;;;;;9.75;2.50;;;;;;;;;;6245370;23;20463;-61
2022/07/27 02:27:03;;;;;;;7.60;2.20;;;;;;;;;;6245682;23;20091;-61
2022/07/27 02:29:29;;;;;;;4.25;2.22;;;;;;;;;;6245323;23;20020;-62
2022/07/27 02:31:56;;;;;;;8.50;2.45;;;;;;;;;;6193399;23;20020;-63
2022/07/27 02:34:22;;;;;;;6.20;1.85;;;;;;;;;;6218619;23;20012;-62
2022/07/27 02:36:48;;;;;;;6.10;1.90;;;;;;;;;;6245087;23;20449;-62
2022/07/27 02:39:14;;;;;;;7.85;2.70;;;;;;;;;;6245366;23;20031;-62
2022/07/27 02:41:40;;;;;;;5.30;2.42;;;;;;;;;;6218857;23;20333;-62
2022/07/27 02:44:06;;;;;;;7.32;2.78;;;;;;;;;;6245270;23;20095;-62
2022/07/27 02:46:32;;;;;;;6.05;2.67;;;;;;;;;;6245618;23;20128;-62
2022/07/27 02:48:58;;;;;;;8.80;3.75;;;;;;;;;;6217594;23;20101;-62
2022/07/27 02:51:24;;;;;;;8.93;4.30;;;;;;;;;;6244860;23;20028;-61
2022/07/27 02:53:50;;;;;;;11.07;4.65;;;;;;;;;;6193388;23;20024;-63
2022/07/27 02:56:16;;;;;;;9.38;5.05;;;;;;;;;;6218393;23;20326;-62
2022/07/27 02:58:42;;;;;;;9.52;5.07;;;;;;;;;;6218621;23;20024;-62
2022/07/27 03:01:08;;;;;;;9.32;4.55;;;;;;;;;;6218124;23;20023;-62
2022/07/27 03:03:34;;;;;;;10.10;4.25;;;;;;;;;;6218475;23;20020;-61
2022/07/27 03:06:00;;;;;;;8.73;4.55;;;;;;;;;;6244690;23;20031;-62
2022/07/27 03:08:26;;;;;;;9.25;5.07;;;;;;;;;;6245164;23;20027;-62
2022/07/27 03:10:52;;;;;;;10.25;5.95;;;;;;;;;;6258823;22;20083;-62
2022/07/27 03:13:18;;;;;;;11.68;5.38;;;;;;;;;;6256168;22;20464;-61
2022/07/27 03:15:44;;;;;;;10.57;6.70;;;;;;;;;;6248138;22;20453;-62
2022/07/27 03:18:10;;;;;;;8.48;6.40;;;;;;;;;;6276186;22;20020;-62
2022/07/27 03:20:36;;;;;;;10.57;6.20;;;;;;;;;;6248300;22;20457;-61
2022/07/27 03:23:02;;;;;;;15.07;5.72;;;;;;;;;;6248387;22;20023;-62
2022/07/27 03:25:28;;;;;;;10.30;5.40;;;;;;;;;;6248592;22;20019;-61
2022/07/27 03:27:54;;;;;;;9.45;4.75;;;;;;;;;;6251082;22;20020;-62
2022/07/27 03:30:21;;;;;;;6.82;3.42;;;;;;;;;;6274839;22;20050;-63
2022/07/27 03:32:48;;;;;;;7.57;3.78;;;;;;;;;;6269176;22;20015;-62
2022/07/27 03:35:52;;;;;;;7.80;4.03;;;11.90;99.90;;;;;;6253081;22;20027;-62
2022/07/27 03:38:18;;;;;;;8.50;3.33;;;;;;;;;;6156777;23;20018;-62
2022/07/27 03:40:44;;;;;;;7.47;4.43;;;;;;;;;;6131070;23;20115;-61
2022/07/27 03:43:10;;;;;;;7.35;4.10;;;;;;;;;;6131219;23;20017;-61
2022/07/27 03:45:37;;;;;;;9.27;4.78;;;;;;;;;;6106664;23;20347;-62
2022/07/27 03:48:03;;;;;;;9.43;4.85;;;;;;;;;;6156927;23;20018;-62
2022/07/27 03:50:29;;;;;;;10.25;5.68;;;;;;;;;;6156985;23;20092;-61
2022/07/27 03:52:55;;;;;;;11.60;6.65;;;;;;;;;;6156811;23;20072;-61
2022/07/27 03:55:21;;;;;;;15.68;8.13;;;;;;;;;;6130494;23;20021;-61
2022/07/27 03:57:47;;;;;;;16.08;7.32;;;;;;;;;;6157134;23;20096;-61
2022/07/27 04:00:14;;;;;;;14.40;7.65;;;;;;;;;;6129931;23;20455;-62
2022/07/27 04:02:40;;;;;;;20.50;9.48;;;;;;;;;;6106551;23;20072;-61
2022/07/27 04:05:07;;;;;;;13.95;7.43;;;;;;;;;;6106327;23;20053;-61
2022/07/27 04:07:33;;;;;;;18.58;6.88;;;;;;;;;;6130583;23;20088;-61
2022/07/27 04:09:59;;;;;;;13.63;6.05;;;;;;;;;;6156186;23;20057;-62
2022/07/27 04:12:25;;;;;;;14.27;6.05;;;;;;;;;;6130927;23;20022;-61
2022/07/27 04:14:51;;;;;;;16.00;7.93;;;;;;;;;;6156437;23;20080;-61
2022/07/27 04:17:18;;;;;;;10.15;5.93;;;;;;;;;;6156900;23;20017;-61
2022/07/27 04:19:44;;;;;;;17.00;8.18;;;;;;;;;;6106314;23;20342;-61
2022/07/27 04:22:10;;;;;;;11.18;6.55;;;;;;;;;;6105869;23;20087;-62
2022/07/27 04:24:36;;;;;;;12.73;5.50;;;;;;;;;;6130243;23;20451;-61
2022/07/27 04:27:02;;;;;;;9.77;4.93;;;;;;;;;;6106216;23;20018;-61
2022/07/27 04:29:28;;;;;;;11.88;4.03;;;;;;;;;;6105888;23;20371;-62
2022/07/27 04:31:54;;;;;;;8.00;3.30;;;;;;;;;;6105905;23;20056;-61
2022/07/27 04:34:20;;;;;;;8.98;3.42;;;;;;;;;;6130418;23;20029;-61
2022/07/27 04:36:46;;;;;;;7.30;3.30;;;;;;;;;;6156133;23;20394;-61
2022/07/27 04:39:12;;;;;;;7.90;2.83;;;;;;;;;;6155925;23;20096;-61
2022/07/27 04:41:38;;;;;;;8.23;2.50;;;;;;;;;;6156206;23;20055;-62
2022/07/27 04:44:04;;;;;;;8.50;2.55;;;;;;;;;;6105898;23;20013;-61
2022/07/27 04:46:30;;;;;;;5.80;1.65;;;;;;;;;;6130225;23;20040;-62
2022/07/27 04:48:56;;;;;;;8.25;2.53;;;;;;;;;;6156589;23;20017;-61
2022/07/27 04:51:23;;;;;;;6.55;1.23;;;;;;;;;;6130256;23;20503;-62
2022/07/27 04:53:49;;;;;;;4.78;1.67;;;;;;;;;;6156399;23;20021;-62
2022/07/27 04:56:15;;;;;;;8.68;2.33;;;;;;;;;;6155939;23;20465;-61
2022/07/27 04:58:41;;;;;;;7.20;1.40;;;;;;;;;;6156554;23;20033;-64
2022/07/27 05:01:07;;;;;;;18.63;3.55;;;;;;;;;;6130091;23;20022;-62
2022/07/27 05:03:33;;;;;;;7.10;2.05;;;;;;;;;;6130370;23;20032;-62
2022/07/27 05:05:59;;;;;;;4.07;1.45;;;;;;;;;;6129945;23;20347;-62
2022/07/27 05:08:25;;;;;;;4.30;1.33;;;;;;;;;;6105789;23;20431;-62
2022/07/27 05:10:51;;;;;;;11.05;2.03;;;;;;;;;;6105890;23;20459;-61
2022/07/27 05:13:17;;;;;;;11.10;1.90;;;;;;;;;;6156042;23;20387;-62
2022/07/27 05:15:43;;;;;;;7.50;1.50;;;;;;;;;;6156362;23;20021;-62
2022/07/27 05:18:09;;;;;;;8.68;1.65;;;;;;;;;;6129801;23;20033;-62
2022/07/27 05:20:35;;;;;;;10.57;2.17;;;;;;;;;;6129900;23;20024;-61
2022/07/27 05:23:01;;;;;;;8.98;1.60;;;;;;;;;;6155825;23;20018;-62
2022/07/27 05:25:27;;;;;;;8.75;1.70;;;;;;;;;;6156248;23;20021;-62
2022/07/27 05:27:53;;;;;;;7.75;1.65;;;;;;;;;;6129574;23;20021;-62
2022/07/27 05:30:20;;;;;;;6.95;1.60;;;;;;;;;;6155859;23;20023;-62
2022/07/27 05:32:46;;;;;;;8.35;1.63;;;;;;;;;;6129930;23;20083;-62
2022/07/27 05:35:12;;;;;;;9.10;1.67;;;;;;;;;;6155637;23;20022;-62
2022/07/27 05:37:38;;;;;;;12.95;1.95;;;;;;;;;;6105054;23;20021;-62
2022/07/27 05:40:05;;;;;;;11.63;2.67;;;;;;;;;;6156133;23;20024;-62
2022/07/27 05:42:31;;;;;;;5.53;2.30;;;;;;;;;;6129722;23;20028;-62
2022/07/27 05:44:57;;;;;;;6.60;2.00;;;;;;;;;;6155946;23;20018;-61
2022/07/27 05:47:23;;;;;;;6.68;1.65;;;;;;;;;;6156150;23;20021;-63
2022/07/27 05:49:49;;;;;;;8.98;2.25;;;;;;;;;;6155028;23;20014;-63
2022/07/27 05:52:15;;;;;;;7.93;2.78;;;;;;;;;;6155622;23;20013;-61
2022/07/27 05:54:42;;;;;;;7.32;2.55;;;;;;;;;;6129395;23;20025;-61
2022/07/27 05:57:08;;;;;;;8.70;2.47;;;;;;;;;;6155574;23;20504;-61
2022/07/27 05:59:35;;;;;;;13.30;3.67;;;;;;;;;;6129452;23;20583;-62
2022/07/27 06:02:02;;;;;;;9.52;2.45;;;;;;;;;;6129531;23;20021;-62
2022/07/27 06:04:28;;;;;;;11.00;2.40;;;;;;;;;;6155777;23;20055;-61
2022/07/27 06:09:40;;;;;;;6.10;1.85;;;;;;;;;;6129287;23;20018;-63
2022/07/27 06:12:06;;;;;;;8.43;2.00;;;;;;;;;;6104142;23;20332;-63
2022/07/27 06:14:32;;;;;;;9.32;2.40;;;;;;;;;;6155396;23;20049;-63
2022/07/27 06:16:58;;;;;;;7.53;1.90;;;;;;;;;;6129609;23;20017;-63
2022/07/27 06:19:24;;;;;;;6.78;1.90;;;;;;;;;;6128912;23;20025;-64
2022/07/27 06:21:50;;;;;;;7.90;1.77;;;;;;;;;;6129198;23;20053;-63
2022/07/27 06:24:16;;;;;;;6.95;2.10;;;;;;;;;;6155721;23;20335;-63
2022/07/27 06:26:43;;;;;;;7.18;1.95;;;;;;;;;;6104430;23;20057;-64
2022/07/27 06:29:09;;;;;;;5.10;1.55;;;;;;;;;;6129563;23;20017;-63
2022/07/27 06:31:35;;;;;;;6.10;1.73;;;;;;;;;;6105113;23;20198;-64
2022/07/27 06:34:01;;;;;;;7.28;1.90;;;;;;;;;;6155202;23;20026;-64
2022/07/27 06:36:27;;;;;;;8.57;1.63;;;;;;;;;;6128203;23;20428;-61
2022/07/27 06:38:53;;;;;;;8.93;1.52;;;;;;;;;;6155499;23;20025;-62
2022/07/27 06:41:19;;;;;;;9.02;2.50;;;;;;;;;;6154813;23;20017;-62
2022/07/27 06:43:45;;;;;;;7.18;1.52;;;;;;;;;;6155269;23;20060;-62
2022/07/27 06:46:12;;;;;;;6.65;1.30;;;;;;;;;;6155137;23;20034;-62
2022/07/27 06:48:38;;;;;;;4.53;1.10;;;17.60;99.90;;;;;;6129520;23;20024;-62
2022/07/27 06:51:04;;;;;;;6.82;1.33;;;;;;;;;;6155080;23;20049;-62
2022/07/27 06:53:30;;;;;;;6.95;1.52;;;;;;;;;;6104908;23;20029;-62
2022/07/27 06:55:58;;;;;;;4.75;1.05;;;;;;;;;;6128732;23;20101;-62
2022/07/27 06:58:24;;;;;;;3.60;0.88;;;17.80;99.90;;;;;;6155146;23;20462;-62
2022/07/27 07:00:50;;;;;;;8.32;2.03;;;;;;;;;;6128628;23;20025;-65
2022/07/27 07:03:17;;;;;;;7.07;1.20;;;;;;;;;;6128924;23;20025;-66
2022/07/27 07:05:45;;;;;;;6.57;1.95;;;;;;;;;;6127580;23;20029;-63
2022/07/27 07:08:13;;;;;;;9.90;1.20;;;;;;;;;;6128908;23;20064;-63
2022/07/27 07:10:40;;;;;;;5.18;1.27;;;18.20;99.90;;;;;;6154050;23;20024;-64
2022/07/27 07:13:07;;;;;;;6.10;1.00;;;18.20;99.90;;;;;;6154003;23;20022;-64
2022/07/27 07:15:35;;;;;;;8.15;1.00;;;18.40;99.90;;;;;;6104596;23;20019;-64
2022/07/27 07:18:02;;;;;;;6.35;1.00;;;18.70;99.90;;;;;;6128730;23;20096;-64
2022/07/27 07:20:29;;;;;;;5.15;1.23;;;;;;;;;;6128954;23;20092;-64
2022/07/27 07:22:55;;;;;;;7.80;0.98;;;19.10;99.90;;;;;;6128129;23;20065;-64
2022/07/27 07:25:21;;;;;;;6.03;1.00;;;19.40;99.90;;;;;;6104349;23;20025;-64
2022/07/27 07:27:47;;;;;;;6.25;1.10;;;;;;;;;;6127711;23;20021;-64
2022/07/27 07:30:13;;;;;;;4.47;1.02;;;19.10;99.90;;;;;;6128503;23;20017;-62
2022/07/27 07:32:39;;;;;;;4.55;1.20;;;19.20;99.90;;;;;;6155260;23;20100;-62
2022/07/27 07:35:05;;;;;;;8.43;1.20;;;19.20;99.90;;;;;;6154287;23;20053;-62
2022/07/27 07:37:31;;;;;;;5.28;0.95;;;;;;;;;;6127689;23;20018;-62
2022/07/27 07:39:58;;;;;;;6.03;1.27;;;;;;;;;;6104561;23;20124;-62
2022/07/27 07:42:24;;;;;;;5.15;1.02;;;19.10;99.90;;;;;;6104005;23;20017;-62
2022/07/27 07:44:49;;;;;;;3.58;0.80;;;19.20;99.90;;;;;;6128768;23;20525;-62
2022/07/27 07:47:15;;;;;;;4.75;1.88;;;;;;;;;;6154529;23;20022;-62
2022/07/27 07:49:41;;;;;;;7.13;1.17;;;;;;;;;;6180879;22;20020;-62
2022/07/27 07:52:08;;;;;;;4.28;0.90;;;;;;;;;;6222541;22;20024;-62
2022/07/27 07:54:34;;;;;;;2.97;0.90;;;;;;;;;;6258314;22;20035;-60
2022/07/27 07:57:00;;;;;;;6.35;1.02;;;;;;;;;;6222130;22;20103;-63
2022/07/27 07:59:25;;;;;;;4.97;0.90;;;19.40;99.90;;;;;;6274521;22;20451;-64
2022/07/27 08:01:52;;;;;;;6.03;1.27;;;;;;;;;;6247410;22;20011;-64
2022/07/27 08:04:18;;;;;;;4.88;1.05;;;;;;;;;;6248335;22;20016;-64
2022/07/27 08:06:44;;;;;;;4.45;0.82;;;;;;;;;;6275149;22;20333;-65
2022/07/27 08:09:11;;;;;;;3.03;0.90;;;19.70;99.90;;;;;;6223445;22;20024;-64
2022/07/27 08:11:37;;;;;;;5.15;0.90;;;19.70;99.90;;;;;;6248473;22;20024;-64
2022/07/27 08:14:04;;;;;;;5.53;1.20;;;;;;;;;;6248373;22;20019;-64
2022/07/27 08:16:30;;;;;;;3.95;1.00;;;;;;;;;;6256087;22;20050;-63
2022/07/27 08:18:55;;;;;;;3.13;0.95;;;20.10;99.90;;;;;;6275903;22;20030;-64
2022/07/27 08:21:21;;;;;;;4.60;0.85;;;;;;;;;;6277005;22;20329;-64
2022/07/27 08:23:47;;;;;;;6.03;1.40;;;20.00;99.90;;;;;;6275738;22;20016;-64
2022/07/27 08:26:12;;;;;;;3.75;0.90;;;20.10;99.90;;;;;;6277539;22;20019;-57
2022/07/27 08:28:38;;;;;;;8.25;1.00;;;20.80;99.90;;;;;;6275858;22;20088;-62
2022/07/27 08:31:04;;;;;;;4.75;0.93;;;;;;;;;;6249638;22;20012;-63
2022/07/27 08:33:30;;;;;;;5.93;0.98;;;20.80;99.90;;;;;;6277049;22;20020;-63
2022/07/27 08:35:58;;;;;;;5.97;1.38;;;;;;;;;;6277047;22;20019;-63
2022/07/27 08:38:26;;;;;;;7.47;1.35;;;;;;;;;;6275592;22;20453;-63
2022/07/27 08:40:53;;;;;;;4.38;0.90;;;20.90;99.90;;;;;;6276853;22;20023;-63
2022/07/27 08:43:19;;;;;;;3.33;0.90;;;21.00;99.90;;;;;;6248314;22;20090;-64
2022/07/27 08:45:55;;;;;;;3.40;0.98;;;20.80;99.90;;;;;;6274383;22;20061;-62
2022/07/27 08:48:24;;;;;;;2.88;0.80;;;20.40;99.90;;;;;;6249897;22;20015;-61
2022/07/27 08:50:50;;;;;;;6.57;1.30;;;;;;;;;;6249762;22;20015;-63
2022/07/27 08:53:17;;;;;;;4.75;1.45;;;;;;;;;;6274869;22;20020;-63
2022/07/27 08:55:46;;;;;;;16.08;5.55;;;19.80;99.90;;;;;;6275696;22;20077;-61
2022/07/27 08:58:13;;;;;;;29.05;8.35;;;;;;;;;;6275359;22;20047;-62
2022/07/27 09:00:42;;;;;;;13.77;2.45;;;19.70;99.90;;;;;;6275202;22;20020;-63
2022/07/27 09:03:12;;;;;;;7.18;1.30;;;;;;;;;;6274896;22;20456;-62
2022/07/27 09:05:42;;;;;;;3.38;1.45;;;19.60;99.90;;;;;;6277095;22;20016;-61
2022/07/27 09:08:10;;;;;;;6.13;2.38;;;;;;;;;;6275584;22;20016;-62
2022/07/27 09:10:39;;;;;;;8.32;1.25;;;;;;;;;;6275479;22;20016;-62
2022/07/27 09:13:24;;;;;;;3.35;0.90;;;19.10;99.90;;;;;;6248362;22;20023;-62
2022/07/27 09:15:54;;;;;;;4.47;1.40;;;19.00;99.90;;;;;;6276617;22;20020;-63
2022/07/27 09:18:26;;;;;;;3.55;0.90;;;19.60;99.90;;;;;;6224716;22;20034;-62
2022/07/27 09:21:11;;;;;;;3.35;1.17;;;;;;;;;;6276729;22;20016;-62
2022/07/27 09:23:41;;;;;;;3.25;1.40;;;;;;;;;;6249848;22;20353;-62
2022/07/27 09:26:18;;;;;;;6.97;1.50;;;;;;;;;;6224129;22;20027;-56
2022/07/27 09:28:44;;;;;;;6.95;1.20;;;;;;;;;;6249364;22;20012;-56
2022/07/27 09:31:12;;;;;;;4.63;1.58;;;;;;;;;;6276278;22;20015;-56
2022/07/27 09:33:44;;;;;;;4.65;1.00;;;;;;;;;;6276805;22;20023;-56
2022/07/27 09:36:11;;;;;;;5.63;1.60;;;;;;;;;;6274703;22;20016;-56
2022/07/27 09:38:37;;;;;;;3.25;0.90;;;;;;;;;;6276746;22;20053;-56
2022/07/27 09:41:05;;;;;;;15.40;3.28;;;19.30;99.90;;;;;;6249361;22;20108;-57
2022/07/27 09:43:43;;;;;;;5.18;1.10;;;;;;;;;;6248202;22;20464;-57
2022/07/27 09:46:09;;;;;;;4.65;1.00;;;;;;;;;;6248856;22;20020;-56
2022/07/27 09:48:36;;;;;;;5.82;1.83;;;;;;;;;;6276763;22;20432;-56
2022/07/27 09:51:03;;;;;;;3.65;1.15;;;;;;;;;;6276349;22;20090;-57
2022/07/27 09:53:33;;;;;;;8.27;1.10;;;19.50;99.90;;;;;;6249329;22;20020;-56
2022/07/27 09:56:11;;;;;;;4.82;0.95;;;;;;;;;;6276308;22;20019;-56
2022/07/27 09:58:42;;;;;;;3.50;1.02;;;19.70;99.90;;;;;;6275832;22;20026;-58
2022/07/27 10:01:11;;;;;;;5.82;1.27;;;19.40;99.90;;;;;;6275271;22;20031;-57
2022/07/27 10:03:38;;;;;;;6.90;1.40;;;19.60;99.90;;;;;;6223011;22;20043;-57
2022/07/27 10:06:04;;;;;;;3.72;1.20;;;;;;;;;;6248798;22;20348;-57
2022/07/27 10:08:31;;;;;;;10.70;2.17;;;;;;;;;;6275950;22;20077;-56
2022/07/27 10:10:57;;;;;;;8.75;1.23;;;;;;;;;;6273935;22;20020;-56
2022/07/27 10:13:26;;;;;;;5.03;1.27;;;;;;;;;;6248404;22;20336;-56
2022/07/27 10:15:53;;;;;;;5.63;1.00;;;20.20;99.90;;;;;;6274417;22;20066;-56
2022/07/27 10:18:28;;;;;;;4.35;1.33;;;20.20;99.90;;;;;;6274250;22;20099;-57
2022/07/27 10:20:56;;;;;;;7.95;1.20;;;20.30;99.90;;;;;;6248662;22;20016;-57
2022/07/27 10:23:29;;;;;;;4.45;0.90;;;20.20;99.90;;;;;;6248913;22;20024;-56
2022/07/27 10:26:13;;;;;;;7.97;1.00;;;19.70;99.90;;;;;;6275622;22;20023;-57
2022/07/27 10:28:51;;;;;;;5.93;1.00;;;;;;;;;;6275470;22;20023;-57
2022/07/27 10:31:20;;;;;;;4.47;1.00;;;19.70;99.90;;;;;;6248468;22;20012;-57
2022/07/27 10:33:47;;;;;;;4.57;1.00;;;;;;;;;;6276058;22;20062;-56
2022/07/27 10:36:14;;;;;;;4.28;1.08;;;;;;;;;;6274995;22;20027;-56
2022/07/27 10:38:48;;;;;;;6.55;1.55;;;19.80;99.90;;;;;;6275983;22;20020;-56
2022/07/27 10:41:22;;;;;;;4.63;1.00;;;;;;;;;;6247969;22;20019;-56
2022/07/27 10:43:50;;;;;;;5.18;1.15;;;;;;;;;;6248024;22;20020;-57
2022/07/27 10:46:22;;;;;;;4.95;0.93;;;;;;;;;;6275335;22;20030;-57
2022/07/27 10:48:48;;;;;;;10.45;1.13;;;;;;;;;;6275496;22;20057;-57
2022/07/27 10:51:15;;;;;;;5.40;1.38;;;20.30;99.90;;;;;;6275833;22;20019;-58
2022/07/27 10:53:42;;;;;;;2.72;0.90;;;20.30;99.90;;;;;;6275770;22;20054;-56
2022/07/27 10:56:09;;;;;;;3.22;1.05;;;20.60;99.90;;;;;;6274822;22;20092;-57
2022/07/27 10:58:34;;;;;;;3.47;1.00;;;21.30;99.90;;;;;;6275703;22;20095;-57
2022/07/27 11:01:02;;;;;;;5.35;1.65;;;21.60;99.90;;;;;;6276024;22;20077;-57
2022/07/27 11:03:32;;;;;;;6.95;1.30;;;20.90;99.90;;;;;;6275484;22;20020;-60
2022/07/27 11:06:06;;;;;;;4.97;1.55;;;;;;;;;;6274944;22;20026;-58
2022/07/27 11:08:34;;;;;;;2.00;0.70;;;20.10;99.90;;;;;;6248454;22;20028;-57
2022/07/27 11:11:00;;;;;;;6.75;1.08;;;;;;;;;;6275399;22;20055;-57
2022/07/27 11:13:28;;;;;;;3.30;0.88;;;;;;;;;;6275736;22;20106;-57
2022/07/27 11:15:55;;;;;;;4.22;0.77;;;;;;;;;;6274848;22;20020;-59
2022/07/27 11:18:25;;;;;;;7.10;1.00;;;;;;;;;;6245732;22;20019;-58
2022/07/27 11:20:51;;;;;;;4.22;1.02;;;;;;;;;;6274158;22;20114;-58
2022/07/27 11:23:21;;;;;;;4.05;1.10;;;18.60;99.90;;;;;;6275106;22;20023;-58
2022/07/27 11:25:57;;;;;;;2.90;0.88;;;;;;;;;;6274707;22;20136;-59
2022/07/27 11:28:33;;;;;;;8.68;1.10;;;;;;;;;;6246265;22;20027;-58
2022/07/27 11:31:00;;;;;;;9.77;1.40;;;;;;;;;;6273694;22;20022;-58
2022/07/27 11:33:26;;;;;;;5.65;1.40;;;;;;;;;;6273726;22;20081;-58
2022/07/27 11:35:53;;;;;;;5.72;1.10;;;;;;;;;;6273717;22;20565;-57
2022/07/27 11:38:20;;;;;;;3.38;0.95;;;;;;;;;;6275549;22;20019;-57
2022/07/27 11:40:50;;;;;;;6.45;1.05;;;;;;;;;;6274227;22;20023;-57
2022/07/27 11:43:35;;;;;;;6.40;0.82;;;19.50;99.90;;;;;;6275481;22;20019;-57
2022/07/27 11:46:16;;;;;;;4.20;1.00;;;;;;;;;;6274052;22;20074;-59
2022/07/27 11:48:51;;;;;;;4.95;1.33;;;19.80;99.90;;;;;;6276877;22;20344;-59
2022/07/27 11:51:17;;;;;;;2.53;0.70;;;19.80;99.90;;;;;;6277526;22;20015;-60
2022/07/27 11:53:43;;;;;;;3.13;0.80;;;;;;;;;;6250463;22;20090;-58
2022/07/27 11:56:09;;;;;;;2.78;0.85;;;;;;;;;;6277011;22;20098;-60
2022/07/27 11:59:05;;;;;;;4.53;1.58;;;19.60;99.90;;;;;;6274798;22;20379;-58
2022/07/27 12:01:40;;;;;;;6.30;0.93;;;20.00;99.90;;;;;;6275361;22;20012;-58
2022/07/27 12:04:09;;;;;;;3.38;1.45;;;;;;;;;;6277697;22;20015;-59
2022/07/27 12:06:35;;;;;;;2.83;0.55;;;20.50;99.90;;;;;;6250434;22;20456;-58
2022/07/27 12:09:04;;;;;;;2.78;1.20;;;20.80;99.90;;;;;;6275536;22;20027;-59
2022/07/27 12:11:45;;;;;;;2.63;0.75;;;21.30;99.90;;;;;;6250340;22;20022;-59
2022/07/27 12:14:14;;;;;;;3.75;0.80;;;21.60;99.90;;;;;;6275840;22;20016;-59
2022/07/27 12:16:40;;;;;;;4.25;1.05;;;;;;;;;;6274835;22;20019;-60
2022/07/27 12:19:06;;;;;;;4.10;1.27;;;;;;;;;;6277237;22;20023;-59
2022/07/27 12:21:33;;;;;;;3.45;0.80;;;;;;;;;;6276736;22;20034;-59
2022/07/27 12:23:59;;;;;;;2.88;0.95;;;;;;;;;;6275606;22;20015;-59
2022/07/27 12:26:25;;;;;;;2.97;0.70;;;;;;;;;;6274650;22;20022;-59
2022/07/27 12:29:08;;;;;;;4.03;1.05;;;21.20;99.90;;;;;;6274476;22;20012;-59
2022/07/27 12:34:47;;;;;;;2.30;0.50;;;;;;;;;;6274767;22;20016;-59
2022/07/27 12:37:13;;;;;;;3.72;0.90;;;;;;;;;;6273737;22;20118;-59
2022/07/27 12:39:44;;;;;;;4.70;0.88;;;20.60;99.90;;;;;;6275521;22;20087;-59
2022/07/27 12:42:11;;;;;;;3.88;0.75;;;20.70;99.90;;;;;;6249587;22;20050;-59
2022/07/27 12:44:43;;;;;;;3.72;1.17;;;20.60;99.90;;;;;;6249709;22;20016;-59
2022/07/27 12:50:11;;;;;;;4.03;0.90;;;;;;;;;;6276911;22;20016;-59
2022/07/27 12:52:42;;;;;;;3.22;0.60;;;;;;;;;;6274391;22;20015;-59
2022/07/27 12:58:59;;;;;;;3.20;0.75;;;;;;;;;;6157189;23;20025;-59
2022/07/27 13:01:25;;;;;;;5.82;1.00;;;;;;;;;;6128093;23;20018;-59
2022/07/27 13:03:51;;;;;;;2.95;0.90;;;;;;;;;;6103165;23;20116;-59
2022/07/27 13:06:17;;;;;;;4.90;0.65;;;;;;;;;;6130188;23;20101;-59
2022/07/27 13:08:43;;;;;;;4.22;0.93;;;;;;;;;;6155472;23;20144;-59
2022/07/27 13:11:09;;;;;;;5.97;1.10;;;;;;;;;;6155867;23;20021;-59
2022/07/27 13:13:35;;;;;;;13.25;2.50;;;;;;;;;;6156334;23;20017;-59
2022/07/27 13:16:01;;;;;;;4.68;1.27;;;;;;;;;;6155913;23;20059;-59
2022/07/27 13:18:27;;;;;;;4.25;0.70;;;;;;;;;;6105673;23;20037;-59
2022/07/27 13:20:53;;;;;;;4.07;0.85;;;;;;;;;;6129348;23;20013;-59
2022/07/27 13:23:20;;;;;;;5.72;1.30;;;;;;;;;;6155617;23;20017;-60
2022/07/27 13:25:46;;;;;;;4.00;1.23;;;;;;;;;;6130393;23;20122;-59
2022/07/27 13:28:12;;;;;;;4.32;1.10;;;;;;;;;;6156003;23;20041;-59
2022/07/27 13:30:38;;;;;;;4.55;0.73;;;;;;;;;;6155085;23;20014;-59
2022/07/27 13:33:04;;;;;;;7.53;0.95;;;19.60;99.90;;;;;;6154509;23;20335;-59
2022/07/27 13:35:30;;;;;;;3.00;0.60;;;;;;;;;;6155784;23;20013;-59
2022/07/27 13:37:56;;;;;;;2.67;0.88;;;19.90;99.90;;;;;;6104457;23;20041;-59
2022/07/27 13:40:22;;;;;;;2.55;0.70;;;;;;;;;;6155637;23;20446;-59
2022/07/27 13:42:48;;;;;;;2.08;0.50;;;;;;;;;;6105205;23;20032;-59
2022/07/27 13:45:14;;;;;;;5.47;1.13;;;;;;;;;;6155505;23;20064;-59
2022/07/27 13:47:40;;;;;;;4.20;0.77;;;;;;;;;;6155932;23;20096;-59
2022/07/27 13:50:08;;;;;;;3.30;0.82;;;20.00;99.90;;;;;;6155630;23;20118;-59
2022/07/27 13:52:34;;;;;;;1.65;0.57;;;;;;;;;;6155440;23;20076;-59
2022/07/27 13:55:00;;;;;;;4.03;0.63;;;;;;;;;;6128100;23;20480;-59
2022/07/27 13:57:26;;;;;;;4.18;0.88;;;;;;;;;;6154720;23;20028;-59
2022/07/27 13:59:52;;;;;;;6.70;0.88;;;;;;;;;;6104572;23;20087;-58
2022/07/27 14:02:18;;;;;;;6.57;1.10;;;;;;;;;;6105151;23;20018;-59
2022/07/27 14:04:45;;;;;;;4.10;0.80;;;21.10;99.90;;;;;;6129450;23;20022;-60
2022/07/27 14:07:11;;;;;;;3.95;0.60;;;;;;;;;;6102664;23;20033;-59
2022/07/27 14:12:22;;;;;;;4.05;1.20;;;;;;;;;;6154791;23;20036;-59
2022/07/27 14:14:48;;;;;;;6.15;1.25;;;;;;;;;;6155116;23;20502;-60
2022/07/27 14:17:14;;;;;;;4.72;0.70;;;;;;;;;;6155416;23;20021;-60
2022/07/27 14:19:40;;;;;;;1.20;0.52;;;;;;;;;;6155480;23;20022;-59
2022/07/27 14:22:09;;;;;;;3.83;0.70;;;;;;;;;;6155259;23;20084;-59
2022/07/27 14:24:36;;;;;;;2.53;0.63;;;20.80;99.90;;;;;;6154984;23;20068;-59
2022/07/27 14:27:02;;;;;;;4.15;1.27;;;21.10;99.90;;;;;;6129064;23;20013;-60
2022/07/27 14:29:28;;;;;;;3.60;0.80;;;21.10;99.90;;;;;;6129145;23;20434;-60
2022/07/27 14:31:54;;;;;;;2.55;0.80;;;;;;;;;;6155427;23;20482;-60
2022/07/27 14:34:20;;;;;;;3.78;0.88;;;;;;;;;;6153912;23;20017;-60